Time;durP1;ratioP1;P1;durP2;ratioP2;P2;SDS_P1;SDS_P2;PMS_P1;PMS_P2;Temp;Humidity;BMP_temperature;BMP_pressure;BME280_temperature;BME280_humidity;BME280_pressure;Samples;Min_cycle;Max_cycle;Signal;HPM_P1;HPM_P2
2021/09/23 00:00:37;;;;;;;8.60;5.25;;;;;;;;;;5012084;28;20101;-73
2021/09/23 00:05:34;;;;;;;8.15;5.10;;;;;;;;;;5011987;28;20033;-74
2021/09/23 00:07:59;;;;;;;10.00;5.43;;;;;;;;;;5012189;28;20385;-73
2021/09/23 00:10:28;;;;;;;7.60;5.05;;;;;;;;;;4993783;28;20060;-73
2021/09/23 00:12:54;;;;;;;9.45;5.95;;;;;;;;;;5011708;28;20025;-73
2021/09/23 00:15:20;;;;;;;9.38;5.80;;;;;;;;;;5012049;28;20492;-73
2021/09/23 00:17:49;;;;;;;7.43;5.05;;;;;;;;;;5011991;28;20028;-73
2021/09/23 00:20:18;;;;;;;10.40;5.10;;;;;;;;;;4994260;28;20014;-73
2021/09/23 00:22:44;;;;;;;9.00;5.38;;;;;;;;;;5010138;28;20032;-73
2021/09/23 00:25:09;;;;;;;10.70;5.95;;;;;;;;;;4992558;28;20026;-73
2021/09/23 00:27:35;;;;;;;10.90;6.63;;;;;;;;;;5011623;28;20018;-73
2021/09/23 00:30:00;;;;;;;7.75;5.85;;;;;;;;;;4994131;28;20022;-74
2021/09/23 00:32:25;;;;;;;12.00;7.63;;;;;;;;;;5011787;28;20121;-74
2021/09/23 00:34:50;;;;;;;9.95;5.88;;;;;;;;;;5012660;28;20033;-73
2021/09/23 00:37:15;;;;;;;11.23;6.25;;;;;;;;;;5011997;28;20022;-73
2021/09/23 00:39:41;;;;;;;8.02;6.15;;;;;;;;;;4993937;28;20021;-74
2021/09/23 00:42:07;;;;;;;12.60;6.85;;;;;;;;;;5011578;28;20150;-74
2021/09/23 00:44:33;;;;;;;8.43;6.13;;;;;;;;;;4994129;28;20057;-74
2021/09/23 00:46:58;;;;;;;8.60;6.10;;;;;;;;;;5011344;28;20109;-74
2021/09/23 00:49:23;;;;;;;7.70;6.72;;;;;;;;;;4994124;28;20384;-74
2021/09/23 00:51:48;;;;;;;7.35;5.78;;;;;;;;;;4994002;28;20038;-74
2021/09/23 00:54:13;;;;;;;7.72;5.68;;;;;;;;;;4988730;28;20064;-74
2021/09/23 00:56:38;;;;;;;11.38;6.00;;;;;;;;;;4992926;28;20026;-74
2021/09/23 00:59:04;;;;;;;9.82;6.03;;;;;;;;;;4994660;28;20411;-73
2021/09/23 01:01:29;;;;;;;8.07;6.10;;;;;;;;;;4994314;28;20019;-73
2021/09/23 01:03:55;;;;;;;10.57;5.65;;;;;;;;;;4995525;28;20022;-74
2021/09/23 01:06:20;;;;;;;7.40;5.05;;;;;;;;;;4994646;28;20110;-74
2021/09/23 01:08:55;;;;;;;9.35;5.20;;;;;;;;;;4995635;28;20041;-73
2021/09/23 01:11:21;;;;;;;8.65;5.55;;;;;;;;;;4993771;28;20109;-73
2021/09/23 01:13:46;;;;;;;8.35;5.20;;;;;;;;;;4994246;28;20125;-73
2021/09/23 01:16:12;;;;;;;6.72;5.25;;;;;;;;;;4991262;28;20058;-74
2021/09/23 01:18:37;;;;;;;10.80;5.40;;;;;;;;;;4995339;28;20439;-74
2021/09/23 01:21:06;;;;;;;10.23;5.63;;;;;;;;;;4995427;28;20105;-74
2021/09/23 01:23:38;;;;;;;10.35;5.57;;;;;;;;;;4972567;28;20109;-74
2021/09/23 01:26:07;;;;;;;7.75;5.70;;;;;;;;;;4991058;28;20393;-73
2021/09/23 01:28:33;;;;;;;9.40;5.88;;;;;;;;;;4977091;28;20045;-72
2021/09/23 01:30:58;;;;;;;9.55;5.63;;;;;;;;;;4993922;28;20022;-73
2021/09/23 01:33:23;;;;;;;10.27;5.32;;;;;;;;;;4994421;28;20044;-72
2021/09/23 01:35:48;;;;;;;7.68;5.78;;;;;;;;;;4993916;28;20379;-72
2021/09/23 01:38:13;;;;;;;9.25;5.70;;;;;;;;;;4994663;28;20026;-73
2021/09/23 01:40:39;;;;;;;9.35;5.47;;;;;;;;;;4995135;28;20030;-73
2021/09/23 01:43:04;;;;;;;9.02;5.70;;;;;;;;;;4993382;28;20057;-73
2021/09/23 01:45:29;;;;;;;10.02;6.43;;;;;;;;;;4993334;28;20508;-73
2021/09/23 01:47:54;;;;;;;8.18;5.47;;;;;;;;;;4980576;28;20033;-73
2021/09/23 01:50:20;;;;;;;10.90;6.28;;;;;;;;;;4993654;28;20034;-73
2021/09/23 01:52:45;;;;;;;9.05;5.97;;;;;;;;;;4993837;28;20062;-73
2021/09/23 01:55:10;;;;;;;8.73;5.82;;;;;;;;;;4992490;28;20133;-73
2021/09/23 01:57:35;;;;;;;9.40;6.40;;;;;;;;;;4993210;28;20026;-73
2021/09/23 02:00:00;;;;;;;12.32;6.85;;;;;;;;;;4990530;28;20032;-73
2021/09/23 02:02:26;;;;;;;9.05;5.70;;;;;;;;;;4977439;28;20037;-73
2021/09/23 02:04:54;;;;;;;9.45;6.35;;;;;;;;;;4993468;28;20030;-73
2021/09/23 02:07:19;;;;;;;8.88;5.47;;;;;;;;;;4993144;28;20032;-73
2021/09/23 02:09:44;;;;;;;10.15;6.63;;;;;;;;;;4992592;28;20026;-73
2021/09/23 02:12:10;;;;;;;10.15;6.75;;;;;;;;;;4993233;28;20030;-73
2021/09/23 02:14:35;;;;;;;9.23;6.82;;;;;;;;;;4993296;28;20399;-73
2021/09/23 02:17:00;;;;;;;7.38;6.20;;;;;;;;;;4976178;28;20030;-73
2021/09/23 02:19:25;;;;;;;12.68;7.47;;;;;;;;;;4994020;28;20018;-72
2021/09/23 02:21:51;;;;;;;11.13;6.82;;;;;;;;;;4993014;28;20450;-73
2021/09/23 02:24:16;;;;;;;10.07;6.88;;;;;;;;;;4990582;28;20038;-72
2021/09/23 02:26:41;;;;;;;10.23;7.70;;;;;;;;;;4992247;28;20026;-72
2021/09/23 02:29:07;;;;;;;9.98;7.00;;;;;;;;;;4976640;28;20117;-72
2021/09/23 02:31:32;;;;;;;11.25;7.28;;;;;;;;;;4992453;28;20022;-72
2021/09/23 02:33:57;;;;;;;11.45;7.90;;;;;;;;;;4992754;28;20034;-73
2021/09/23 02:36:22;;;;;;;12.93;7.35;;;;;;;;;;4993786;28;20026;-73
2021/09/23 02:38:47;;;;;;;10.65;7.03;;;;;;;;;;4994079;28;20026;-73
2021/09/23 02:41:13;;;;;;;10.73;6.97;;;;;;;;;;4993926;28;20174;-74
2021/09/23 02:43:38;;;;;;;10.45;6.72;;;;;;;;;;4993562;28;20379;-74
2021/09/23 02:46:03;;;;;;;10.63;8.10;;;;;;;;;;4992304;28;20415;-74
2021/09/23 02:48:28;;;;;;;10.20;8.10;;;;;;;;;;4992509;28;20030;-74
2021/09/23 02:50:54;;;;;;;11.75;8.90;;;;;;;;;;4993857;28;20465;-73
2021/09/23 02:53:19;;;;;;;10.63;7.57;;;;;;;;;;4987475;28;20114;-74
2021/09/23 02:55:45;;;;;;;11.48;8.10;;;;;;;;;;5000844;28;20069;-73
2021/09/23 02:58:10;;;;;;;10.63;7.57;;;;;;;;;;5012251;28;20117;-73
2021/09/23 03:00:35;;;;;;;8.85;7.15;;;;;;;;;;4994898;28;20088;-73
2021/09/23 03:03:00;;;;;;;8.45;7.05;;;;;;;;;;5011906;28;20026;-74
2021/09/23 03:05:26;;;;;;;11.88;7.50;;;;;;;;;;5012232;28;20503;-74
2021/09/23 03:07:51;;;;;;;11.20;7.55;;;;;;;;;;4994672;28;20034;-74
2021/09/23 03:10:16;;;;;;;10.60;8.05;;;;;;;;;;4994145;28;20034;-73
2021/09/23 03:12:41;;;;;;;10.85;8.20;;;;;;;;;;4993596;28;20026;-73
2021/09/23 03:15:07;;;;;;;11.65;8.20;;;;;;;;;;4992463;28;20029;-73
2021/09/23 03:17:32;;;;;;;10.82;8.50;;;;;;;;;;5009277;28;20022;-72
2021/09/23 03:19:57;;;;;;;9.18;7.35;;;;;;;;;;4993638;28;20483;-72
2021/09/23 03:22:22;;;;;;;10.45;7.60;;;;;;;;;;4993983;28;20161;-72
2021/09/23 03:24:48;;;;;;;10.07;7.57;;;;;;;;;;4990924;28;20041;-72
2021/09/23 03:27:13;;;;;;;10.75;7.25;;;;;;;;;;4977432;28;20033;-72
2021/09/23 03:29:38;;;;;;;10.15;7.25;;;;;;;;;;4994293;28;20070;-72
2021/09/23 03:32:04;;;;;;;10.00;7.28;;;;;;;;;;5011771;28;20026;-72
2021/09/23 03:34:29;;;;;;;11.32;7.32;;;;;;;;;;4993583;28;20038;-72
2021/09/23 03:36:54;;;;;;;11.77;7.70;;;;;;;;;;4994383;28;20030;-72
2021/09/23 03:39:19;;;;;;;11.18;8.02;;;;;;;;;;5010376;28;20021;-72
2021/09/23 03:41:45;;;;;;;11.00;7.90;;;;;;;;;;4977690;28;20079;-72
2021/09/23 03:44:10;;;;;;;15.15;8.85;;;;;;;;;;5011320;28;20487;-72
2021/09/23 03:46:35;;;;;;;11.35;7.75;;;;;;;;;;5011837;28;20073;-73
2021/09/23 03:49:01;;;;;;;10.93;7.90;;;;;;;;;;5011391;28;20017;-74
2021/09/23 03:51:26;;;;;;;12.00;8.98;;;;;;;;;;4993693;28;20411;-73
2021/09/23 03:53:51;;;;;;;12.32;8.25;;;;;;;;;;4944646;28;1070245;-73
2021/09/23 03:56:16;;;;;;;8.95;7.50;;;;;;;;;;5012584;28;20474;-73
2021/09/23 03:58:42;;;;;;;9.65;8.43;;;;;;;;;;4978188;28;20427;-73
2021/09/23 04:01:07;;;;;;;10.52;9.45;;;;;;;;;;4994000;28;20038;-73
2021/09/23 04:03:33;;;;;;;12.98;9.45;;;;;;;;;;5012359;28;20018;-73
2021/09/23 04:05:58;;;;;;;13.20;9.00;;;;;;;;;;5011799;28;20018;-73
2021/09/23 04:08:23;;;;;;;12.85;9.13;;;;;;;;;;5011759;28;20076;-73
2021/09/23 04:10:48;;;;;;;10.80;8.32;;;;;;;;;;5011386;28;20017;-73
2021/09/23 04:13:13;;;;;;;11.60;7.35;;;;;;;;;;5012106;28;20026;-73
2021/09/23 04:15:39;;;;;;;12.00;8.50;;;;;;;;;;4994128;28;20025;-73
2021/09/23 04:18:04;;;;;;;11.93;9.05;;;;;;;;;;5012129;28;20061;-73
2021/09/23 04:20:29;;;;;;;12.38;9.07;;;;;;;;;;5011675;28;20018;-73
2021/09/23 04:22:54;;;;;;;12.32;9.55;;;;;;;;;;4992203;28;20045;-73
2021/09/23 04:25:20;;;;;;;11.75;8.63;;;;;;;;;;4993839;28;20038;-73
2021/09/23 04:27:45;;;;;;;11.52;8.90;;;;;;;;;;5011914;28;20123;-73
2021/09/23 04:30:10;;;;;;;12.48;8.93;;;;;;;;;;4994030;28;20049;-73
2021/09/23 04:32:35;;;;;;;9.38;8.02;;;;;;;;;;4981216;28;20049;-73
2021/09/23 04:35:01;;;;;;;10.48;8.60;;;;;;;;;;5015933;28;20030;-73
2021/09/23 04:37:26;;;;;;;11.48;8.70;;;;;;;;;;5015248;28;20036;-74
2021/09/23 04:39:51;;;;;;;11.85;8.80;;;;;;;;;;4997898;28;20032;-74
2021/09/23 04:42:16;;;;;;;9.43;8.43;;;;;;;;;;4996786;28;20142;-74
2021/09/23 04:44:41;;;;;;;11.30;8.93;;;;;;;;;;4998042;28;20081;-74
2021/09/23 04:47:07;;;;;;;11.93;8.93;;;;;;;;;;5014915;28;20383;-72
2021/09/23 04:49:32;;;;;;;10.80;8.95;;;;;;;;;;4997384;28;20064;-73
2021/09/23 04:51:57;;;;;;;11.05;8.90;;;;;;;;;;5014447;28;20100;-72
2021/09/23 04:54:22;;;;;;;14.20;9.13;;;;;;;;;;4994476;28;20054;-72
2021/09/23 04:56:48;;;;;;;12.18;9.95;;;;;;;;;;4993666;28;20073;-74
2021/09/23 04:59:13;;;;;;;13.73;10.02;;;;;;;;;;4995267;28;20122;-72
2021/09/23 05:01:39;;;;;;;13.85;9.90;;;;;;;;;;4977871;28;20434;-73
2021/09/23 05:04:04;;;;;;;11.93;9.18;;;;;;;;;;4994605;28;20027;-72
2021/09/23 05:06:29;;;;;;;11.13;8.32;;;;;;;;;;4994083;28;20038;-74
2021/09/23 05:08:54;;;;;;;11.95;8.88;;;;;;;;;;4993788;28;20030;-75
2021/09/23 05:11:19;;;;;;;10.13;8.95;;;;;;;;;;4994835;28;20101;-75
2021/09/23 05:13:45;;;;;;;11.93;8.60;;;;;;;;;;4993116;28;20093;-74
2021/09/23 05:16:10;;;;;;;10.82;9.30;;;;;;;;;;4979729;28;20030;-76
2021/09/23 05:18:35;;;;;;;9.43;8.00;;;;;;;;;;4982357;28;20030;-75
2021/09/23 05:21:00;;;;;;;9.18;8.27;;;;;;;;;;4991278;28;20029;-74
2021/09/23 05:23:25;;;;;;;11.13;8.52;;;;;;;;;;4996086;28;20427;-73
2021/09/23 05:25:50;;;;;;;10.73;8.88;;;;;;;;;;4999683;28;20077;-73
2021/09/23 05:28:16;;;;;;;11.40;8.48;;;;;;;;;;4994855;28;20064;-73
2021/09/23 05:30:41;;;;;;;11.40;9.00;;;;;;;;;;4994814;28;20011;-72
2021/09/23 05:33:08;;;;;;;12.20;9.02;;;;;;;;;;4994515;28;20025;-72
2021/09/23 05:35:33;;;;;;;9.75;8.68;;;;;;;;;;4979662;28;20018;-72
2021/09/23 05:37:58;;;;;;;9.95;7.85;;;;;;;;;;4993464;28;20038;-72
2021/09/23 05:40:24;;;;;;;10.70;8.38;;;;;;;;;;4993228;28;20425;-72
2021/09/23 05:42:49;;;;;;;11.55;9.73;;;;;;;;;;4972899;28;20061;-73
2021/09/23 05:45:14;;;;;;;10.25;7.95;;;;;;;;;;4974945;28;20074;-71
2021/09/23 05:47:41;;;;;;;10.05;7.75;;;;;;;;;;4993029;28;20022;-73
2021/09/23 05:50:07;;;;;;;9.43;7.78;;;;;;;;;;4994044;28;20084;-72
2021/09/23 05:52:33;;;;;;;8.95;8.05;;;;;;;;;;4993929;28;20026;-73
2021/09/23 05:54:58;;;;;;;12.68;8.27;;;;;;;;;;5003163;28;20046;-74
2021/09/23 05:57:24;;;;;;;8.40;7.60;;;;;;;;;;4991364;28;20026;-75
2021/09/23 05:59:52;;;;;;;9.38;7.00;;;;;;;;;;5013430;28;20021;-74
2021/09/23 06:02:18;;;;;;;10.02;7.85;;;;;;;;;;5013293;28;20467;-75
2021/09/23 06:04:43;;;;;;;7.95;7.15;;;;;;;;;;5009011;28;20023;-73
2021/09/23 06:07:08;;;;;;;8.63;7.55;;;;;;;;;;4995994;28;20029;-75
2021/09/23 06:09:34;;;;;;;8.35;7.10;;;;;;;;;;4994346;28;20026;-76
2021/09/23 06:11:59;;;;;;;7.82;7.03;;;;;;;;;;5007240;28;20522;-75
2021/09/23 06:14:24;;;;;;;8.82;6.10;;;;;;;;;;4972180;28;20030;-76
2021/09/23 06:16:50;;;;;;;7.38;6.20;;;;;;;;;;4971999;28;20202;-76
2021/09/23 06:19:15;;;;;;;9.00;6.60;;;;;;;;;;4995539;28;20382;-74
2021/09/23 06:21:40;;;;;;;7.53;5.95;;;;;;;;;;5012627;28;20376;-74
2021/09/23 06:24:06;;;;;;;7.82;5.90;;;;;;;;;;4992065;28;20501;-73
2021/09/23 06:26:31;;;;;;;7.30;5.85;;;;;;;;;;5013097;28;20411;-74
2021/09/23 06:28:56;;;;;;;8.38;5.70;;;;;;;;;;5013075;28;20141;-72
2021/09/23 06:31:22;;;;;;;5.50;4.70;;;;;;;;;;4996025;28;20124;-73
2021/09/23 06:33:47;;;;;;;6.60;5.32;;;;;;;;;;5012726;28;20029;-73
2021/09/23 06:36:12;;;;;;;8.38;5.13;;;;;;;;;;4995237;28;20022;-73
2021/09/23 06:38:37;;;;;;;6.95;5.10;;;;;;;;;;5012863;28;20575;-73
2021/09/23 06:41:02;;;;;;;5.28;4.68;;;;;;;;;;4995218;28;20026;-74
2021/09/23 06:43:28;;;;;;;6.35;4.63;;;;;;;;;;4994749;28;20126;-73
2021/09/23 06:45:53;;;;;;;4.47;4.07;;;;;;;;;;4994158;28;20387;-80
2021/09/23 06:48:18;;;;;;;5.57;4.20;;;;;;;;;;4994769;28;20028;-73
2021/09/23 06:50:44;;;;;;;8.63;5.55;;;;;;;;;;5013509;28;20028;-73
2021/09/23 06:53:09;;;;;;;5.85;5.20;;;;;;;;;;5011347;28;20036;-74
2021/09/23 06:55:34;;;;;;;5.78;4.75;;;;;;;;;;4994749;28;20050;-73
2021/09/23 06:57:59;;;;;;;7.82;4.25;;;;;;;;;;4995280;28;20021;-82
2021/09/23 07:00:26;;;;;;;4.95;4.45;;;;;;;;;;4994697;28;20018;-74
2021/09/23 07:02:52;;;;;;;6.22;4.82;;;;;;;;;;5012630;28;20022;-78
2021/09/23 07:05:17;;;;;;;4.28;3.80;;;;;;;;;;4994197;28;20030;-77
2021/09/23 07:07:42;;;;;;;3.70;3.08;;;;;;;;;;5011622;28;20045;-79
2021/09/23 07:10:07;;;;;;;4.47;3.58;;;;;;;;;;5012526;28;20030;-79
2021/09/23 07:12:33;;;;;;;3.40;2.78;;;;;;;;;;4975324;28;20026;-79
2021/09/23 07:14:58;;;;;;;4.43;3.58;;;;;;;;;;5006871;28;20084;-78
2021/09/23 07:17:23;;;;;;;3.97;3.67;;;;;;;;;;4994629;28;20026;-73
2021/09/23 07:19:49;;;;;;;3.90;3.42;;;;;;;;;;5012300;28;20030;-73
2021/09/23 07:22:14;;;;;;;3.58;3.08;;;;;;;;;;5011967;28;20030;-73
2021/09/23 07:24:40;;;;;;;6.65;3.40;;;;;;;;;;5001023;28;20040;-73
2021/09/23 07:27:05;;;;;;;5.25;3.30;;;;;;;;;;5012014;28;20030;-73
2021/09/23 07:29:30;;;;;;;4.43;3.03;;;;;;;;;;5011436;28;20538;-72
2021/09/23 07:31:56;;;;;;;3.65;3.20;;;;;;;;;;5012150;28;20061;-73
2021/09/23 07:34:21;;;;;;;3.20;2.90;;;;;;;;;;5012299;28;20026;-75
2021/09/23 07:36:46;;;;;;;3.40;2.03;;;;;;;;;;4994556;28;20432;-72
2021/09/23 07:39:11;;;;;;;2.42;2.10;;;;;;;;;;4978091;28;20018;-72
2021/09/23 07:41:38;;;;;;;5.93;2.40;;;;;;;;;;5011664;28;20064;-72
2021/09/23 07:44:04;;;;;;;3.05;2.83;;;;;;;;;;5012245;28;20029;-72
2021/09/23 07:46:29;;;;;;;2.97;2.30;;;;;;;;;;5010872;28;20087;-73
2021/09/23 07:48:54;;;;;;;4.63;2.05;;;;;;;;;;5008947;28;20096;-72
2021/09/23 07:51:20;;;;;;;3.53;2.42;;;;;;;;;;5011514;28;20026;-73
2021/09/23 07:53:45;;;;;;;4.40;2.17;;;;;;;;;;5009819;28;20069;-72
2021/09/23 07:56:10;;;;;;;2.65;2.45;;;;;;;;;;5011945;28;20531;-72
2021/09/23 07:58:36;;;;;;;3.03;1.85;;;;;;;;;;5009231;28;20427;-73
2021/09/23 08:01:01;;;;;;;2.63;2.35;;;;;;;;;;5015864;28;20026;-73
2021/09/23 08:03:26;;;;;;;4.13;2.70;;;;;;;;;;5012016;28;20427;-73
2021/09/23 08:05:51;;;;;;;3.05;2.20;;;;;;;;;;5011663;28;20121;-73
2021/09/23 08:08:16;;;;;;;3.30;1.60;;;;;;;;;;5011361;28;20080;-72
2021/09/23 08:10:42;;;;;;;3.15;2.17;;;;;;;;;;4994059;28;20267;-73
2021/09/23 08:13:07;;;;;;;4.18;2.30;;;;;;;;;;4977851;28;20065;-73
2021/09/23 08:15:32;;;;;;;2.28;2.00;;;;;;;;;;4978156;28;20460;-72
2021/09/23 08:17:57;;;;;;;1.58;1.10;;;;;;;;;;5018147;28;20507;-73
2021/09/23 08:20:23;;;;;;;4.20;2.30;;;;;;;;;;4996903;28;20025;-72
2021/09/23 08:22:48;;;;;;;1.10;0.75;;;;;;;;;;5009834;28;20022;-72
2021/09/23 08:25:13;;;;;;;2.80;2.17;;;;;;;;;;4992998;28;20050;-72
2021/09/23 08:27:39;;;;;;;1.60;1.02;;;;;;;;;;4993519;28;20025;-73
2021/09/23 08:30:04;;;;;;;2.00;1.90;;;;;;;;;;5011546;28;20383;-74
2021/09/23 08:32:29;;;;;;;3.00;1.17;;;;;;;;;;5011099;28;20026;-74
2021/09/23 08:34:55;;;;;;;5.30;2.95;;;;;;;;;;5011496;28;20122;-73
2021/09/23 08:37:20;;;;;;;3.28;2.05;;;;;;;;;;4998636;28;20472;-73
2021/09/23 08:39:45;;;;;;;2.95;1.80;;;;;;;;;;4993454;28;20503;-73
2021/09/23 08:42:11;;;;;;;3.25;1.05;;;;;;;;;;5011007;28;20026;-72
2021/09/23 08:44:38;;;;;;;3.42;1.42;;;;;;;;;;5011569;28;20045;-73
2021/09/23 08:47:04;;;;;;;2.47;1.40;;;;;;;;;;5010868;28;20025;-72
2021/09/23 08:49:29;;;;;;;4.57;1.98;;;;;;;;;;5011485;28;20392;-72
2021/09/23 08:51:54;;;;;;;3.10;1.47;;;;;;;;;;4992832;28;20048;-71
2021/09/23 08:54:21;;;;;;;2.85;1.50;;;;;;;;;;5004914;28;20303;-72
2021/09/23 08:56:46;;;;;;;2.78;1.30;;;;;;;;;;5010286;28;20399;-73
2021/09/23 08:59:12;;;;;;;1.90;1.80;;;;;;;;;;4990729;28;20030;-73
2021/09/23 09:01:45;;;;;;;2.60;1.52;;;;;;;;;;4998051;28;20026;-72
2021/09/23 09:04:10;;;;;;;2.40;1.27;;;;;;;;;;5008331;28;20349;-73
2021/09/23 09:06:36;;;;;;;2.55;1.27;;;;;;;;;;5000493;28;20034;-73
2021/09/23 09:09:02;;;;;;;1.48;1.00;;;;;;;;;;5008702;28;20034;-73
2021/09/23 09:11:30;;;;;;;2.28;1.40;;;;;;;;;;4977018;28;20498;-72
2021/09/23 09:13:55;;;;;;;2.90;0.73;;;;;;;;;;5011261;28;20033;-72
2021/09/23 09:16:22;;;;;;;2.75;1.58;;;;;;;;;;5010717;28;20423;-72
2021/09/23 09:18:48;;;;;;;1.33;1.23;;;;;;;;;;5009471;28;20424;-72
2021/09/23 09:21:14;;;;;;;1.92;1.10;;;;;;;;;;5015169;28;20018;-72
2021/09/23 09:23:57;;;;;;;2.65;1.13;;;;;;;;;;5011686;28;20041;-72
2021/09/23 09:26:22;;;;;;;2.55;0.98;;;;;;;;;;4990026;28;20040;-72
2021/09/23 09:28:52;;;;;;;3.10;1.30;;;;;;;;;;5014509;28;20025;-73
2021/09/23 09:31:17;;;;;;;2.67;1.60;;;;;;;;;;5013490;28;20022;-72
2021/09/23 09:33:44;;;;;;;1.27;1.15;;;;;;;;;;5008362;28;20429;-72
2021/09/23 09:36:27;;;;;;;3.22;1.17;;;;;;;;;;5014680;28;20025;-72
2021/09/23 09:39:00;;;;;;;3.05;1.20;;;;;;;;;;5014927;28;20349;-72
2021/09/23 09:41:27;;;;;;;8.38;1.65;;;;;;;;;;5013947;28;20487;-72
2021/09/23 09:43:56;;;;;;;2.30;1.10;;;;;;;;;;4996017;28;20036;-73
2021/09/23 09:46:28;;;;;;;3.28;0.88;;;;;;;;;;4992993;28;20020;-73
2021/09/23 09:48:54;;;;;;;2.00;0.70;;;;;;;;;;5013761;28;20068;-74
2021/09/23 09:51:23;;;;;;;2.03;0.93;;;;;;;;;;5011102;28;20026;-73
2021/09/23 09:53:58;;;;;;;2.58;1.20;;;;;;;;;;4987103;28;20038;-74
2021/09/23 09:56:24;;;;;;;2.10;1.13;;;;;;;;;;4994432;28;20018;-74
2021/09/23 09:59:04;;;;;;;1.80;0.93;;;;;;;;;;4993241;28;20026;-73
2021/09/23 10:01:30;;;;;;;2.67;1.25;;;;;;;;;;4991849;28;20381;-73
2021/09/23 10:03:56;;;;;;;2.75;1.10;;;;;;;;;;4993572;28;20026;-73
2021/09/23 10:06:21;;;;;;;2.38;0.68;;;;;;;;;;4992024;28;20477;-73
2021/09/23 10:08:46;;;;;;;1.23;0.90;;;;;;;;;;4976590;28;20038;-73
2021/09/23 10:11:11;;;;;;;2.47;0.98;;;;;;;;;;4993465;28;20084;-73
2021/09/23 10:13:37;;;;;;;1.02;0.30;;;;;;;;;;4988377;28;20117;-72
2021/09/23 10:16:02;;;;;;;1.98;0.70;;;;;;;;;;4994360;28;20384;-72
2021/09/23 10:18:28;;;;;;;2.00;1.13;;;;;;;;;;4992492;28;20053;-72
2021/09/23 10:20:53;;;;;;;2.05;1.02;;;;;;;;;;4993313;28;20026;-73
2021/09/23 10:23:18;;;;;;;3.63;1.00;;;;;;;;;;4991445;28;20038;-72
2021/09/23 10:25:44;;;;;;;2.10;1.27;;;;;;;;;;4999690;28;20030;-72
2021/09/23 10:28:10;;;;;;;2.85;1.15;;;;;;;;;;4995467;28;20309;-72
2021/09/23 10:30:37;;;;;;;1.80;0.95;;;;;;;;;;4991967;28;20027;-71
2021/09/23 10:33:03;;;;;;;1.70;0.75;;;;;;;;;;4992597;28;20022;-71
2021/09/23 10:35:29;;;;;;;2.40;1.10;;;;;;;;;;4993102;28;20318;-72
2021/09/23 10:37:56;;;;;;;2.03;0.88;;;;;;;;;;4992753;28;20026;-72
2021/09/23 10:40:21;;;;;;;2.25;1.10;;;;;;;;;;4987787;28;20030;-71
2021/09/23 10:42:48;;;;;;;3.15;1.20;;;;;;;;;;4992899;28;20034;-72
2021/09/23 10:45:14;;;;;;;2.20;0.95;;;;;;;;;;4991180;28;20440;-72
2021/09/23 10:47:44;;;;;;;2.45;1.48;;;;;;;;;;4990454;28;20019;-71
2021/09/23 10:50:09;;;;;;;1.35;0.93;;;;;;;;;;4991181;28;20022;-70
2021/09/23 10:52:35;;;;;;;2.30;1.27;;;;;;;;;;4992671;28;20026;-71
2021/09/23 10:55:01;;;;;;;0.95;0.60;;;;;;;;;;5003183;28;20053;-72
2021/09/23 10:57:27;;;;;;;2.22;1.15;;;;;;;;;;4988485;28;20029;-72
2021/09/23 10:59:53;;;;;;;2.13;1.20;;;;;;;;;;5003018;28;20365;-74
2021/09/23 11:02:19;;;;;;;1.98;1.00;;;;;;;;;;5019451;28;20028;-78
2021/09/23 11:04:45;;;;;;;1.88;1.35;;;;;;;;;;4999795;28;20079;-75
2021/09/23 11:07:10;;;;;;;3.50;0.93;;;;;;;;;;5011932;28;20030;-75
2021/09/23 11:09:37;;;;;;;1.67;0.80;;;;;;;;;;4994684;28;20032;-75
2021/09/23 11:12:05;;;;;;;2.55;1.13;;;;;;;;;;5011574;28;20060;-75
2021/09/23 11:14:32;;;;;;;0.93;0.60;;;;;;;;;;5011840;28;20018;-77
2021/09/23 11:16:58;;;;;;;1.33;1.15;;;;;;;;;;4993401;28;20472;-76
2021/09/23 11:19:24;;;;;;;2.47;0.85;;;;;;;;;;5012504;28;20034;-74
2021/09/23 11:21:51;;;;;;;3.05;1.35;;;;;;;;;;5012367;28;20380;-76
2021/09/23 11:24:17;;;;;;;2.88;1.45;;;;;;;;;;4989442;28;20037;-72
2021/09/23 11:26:43;;;;;;;2.90;1.15;;;;;;;;;;5007702;28;20029;-71
2021/09/23 11:29:09;;;;;;;3.13;1.27;;;;;;;;;;5011076;28;20036;-71
2021/09/23 11:31:51;;;;;;;2.30;1.00;;;;;;;;;;4993049;28;20048;-72
2021/09/23 11:34:48;;;;;;;1.65;0.90;;;;;;;;;;5005978;28;20030;-72
2021/09/23 11:37:13;;;;;;;1.92;1.30;;;;;;;;;;4931096;29;20526;-72
2021/09/23 11:39:45;;;;;;;2.53;1.00;;;;;;;;;;4931362;29;20024;-73
2021/09/23 11:42:12;;;;;;;1.63;0.73;;;;;;;;;;4920274;29;20376;-72
2021/09/23 11:44:38;;;;;;;1.42;1.23;;;;;;;;;;4916999;29;20055;-72
2021/09/23 11:47:03;;;;;;;1.17;1.02;;;;;;;;;;4916480;29;20542;-72
2021/09/23 11:49:28;;;;;;;1.63;0.98;;;;;;;;;;4932007;29;20031;-72
2021/09/23 11:51:55;;;;;;;2.03;1.08;;;;;;;;;;4932040;29;20543;-73
2021/09/23 11:54:24;;;;;;;1.00;0.90;;;;;;;;;;4929993;29;20040;-73
2021/09/23 11:56:49;;;;;;;3.95;1.20;;;;;;;;;;4930997;29;20071;-73
2021/09/23 11:59:18;;;;;;;5.80;1.10;;;;;;;;;;4916063;29;20043;-73
2021/09/23 12:01:43;;;;;;;3.38;1.13;;;;;;;;;;4928057;29;20263;-73
2021/09/23 12:04:12;;;;;;;1.33;1.20;;;;;;;;;;4932000;29;20553;-73
2021/09/23 12:06:37;;;;;;;2.97;1.38;;;;;;;;;;4932167;29;20408;-74
2021/09/23 12:09:06;;;;;;;2.25;0.95;;;;;;;;;;4932084;29;20119;-73
2021/09/23 12:11:32;;;;;;;2.45;1.15;;;;;;;;;;4931343;29;20188;-74
2021/09/23 12:13:57;;;;;;;1.00;0.77;;;;;;;;;;5009921;28;20574;-72
2021/09/23 12:16:24;;;;;;;2.60;1.57;;;;;;;;;;4977724;28;20785;-73
2021/09/23 12:18:49;;;;;;;1.33;1.23;;;;;;;;;;4993965;28;20257;-72
2021/09/23 12:21:16;;;;;;;1.63;1.45;;;;;;;;;;4993501;28;20045;-72
2021/09/23 12:23:48;;;;;;;1.52;1.27;;;;;;;;;;5009969;28;20025;-72
2021/09/23 12:26:19;;;;;;;1.85;1.20;;;;;;;;;;5011184;28;20075;-72
2021/09/23 12:28:50;;;;;;;2.63;1.38;;;;;;;;;;5011349;28;20422;-71
2021/09/23 12:31:16;;;;;;;1.90;1.00;;;;;;;;;;4993693;28;20022;-72
2021/09/23 12:33:53;;;;;;;2.75;1.05;;;;;;;;;;4992062;28;20018;-72
2021/09/23 12:36:19;;;;;;;2.10;1.13;;;;;;;;;;4987491;28;20392;-72
2021/09/23 12:38:44;;;;;;;1.00;0.88;;;;;;;;;;4985029;28;20022;-72
2021/09/23 12:41:20;;;;;;;2.28;1.20;;;;;;;;;;5003798;28;20052;-73
2021/09/23 12:43:46;;;;;;;1.85;1.00;;;;;;;;;;4988849;28;20025;-72
2021/09/23 12:46:13;;;;;;;1.90;1.20;;;;;;;;;;4982951;28;20029;-73
2021/09/23 12:48:38;;;;;;;1.67;0.77;;;;;;;;;;5004350;28;20080;-73
2021/09/23 12:51:03;;;;;;;2.58;1.50;;;;;;;;;;4989174;28;20060;-72
2021/09/23 12:53:29;;;;;;;1.95;1.10;;;;;;;;;;5004457;28;20098;-73
2021/09/23 12:55:54;;;;;;;1.17;1.07;;;;;;;;;;5008106;28;20443;-73
2021/09/23 12:58:20;;;;;;;1.03;1.03;;;;;;;;;;5011132;28;20774;-72
2021/09/23 13:00:47;;;;;;;1.15;1.02;;;;;;;;;;5009197;28;20678;-72
2021/09/23 13:03:13;;;;;;;2.05;1.50;;;;;;;;;;5014680;28;20093;-71
2021/09/23 13:05:40;;;;;;;2.45;1.30;;;;;;;;;;5009321;28;20030;-72
2021/09/23 13:08:09;;;;;;;2.83;1.30;;;;;;;;;;5012796;28;20018;-73
2021/09/23 13:10:35;;;;;;;1.88;0.73;;;;;;;;;;5008163;28;20023;-74
2021/09/23 13:13:04;;;;;;;2.83;0.90;;;;;;;;;;5014419;28;20174;-73
2021/09/23 13:15:39;;;;;;;2.17;1.23;;;;;;;;;;4994765;28;20442;-73
2021/09/23 13:18:04;;;;;;;;;;;;;;;;;;4994619;28;20027;-74
2021/09/23 13:20:31;;;;;;;1.65;1.10;;;;;;;;;;4986327;28;20132;-73
2021/09/23 13:22:56;;;;;;;2.08;1.42;;;;;;;;;;5011487;28;20464;-73
2021/09/23 13:25:22;;;;;;;1.67;1.10;;;;;;;;;;4991869;28;20041;-73
2021/09/23 13:27:47;;;;;;;1.20;0.70;;;;;;;;;;4996425;28;20037;-73
2021/09/23 13:30:14;;;;;;;3.33;1.30;;;;;;;;;;5014207;28;20100;-73
2021/09/23 13:32:41;;;;;;;3.58;1.65;;;;;;;;;;5011469;28;20494;-73
2021/09/23 13:35:06;;;;;;;1.27;1.00;;;;;;;;;;5011546;28;20120;-73
2021/09/23 13:37:32;;;;;;;2.00;1.25;;;;;;;;;;5011503;28;20097;-73
2021/09/23 13:39:57;;;;;;;3.15;1.23;;;;;;;;;;5010693;28;20076;-73
2021/09/23 13:42:22;;;;;;;1.83;1.30;;;;;;;;;;4993132;28;20030;-74
2021/09/23 13:44:47;;;;;;;2.80;1.23;;;;;;;;;;4993160;28;20049;-73
2021/09/23 13:47:12;;;;;;;2.30;1.27;;;;;;;;;;4993774;28;20113;-74
2021/09/23 13:49:38;;;;;;;1.30;1.00;;;;;;;;;;4979876;28;20492;-74
2021/09/23 13:52:03;;;;;;;1.87;1.23;;;;;;;;;;4980330;28;20745;-74
2021/09/23 13:54:28;;;;;;;3.25;1.10;;;;;;;;;;4976341;28;20355;-73
2021/09/23 13:56:53;;;;;;;2.00;1.50;;;;;;;;;;5013703;28;20025;-73
2021/09/23 13:59:19;;;;;;;1.65;1.40;;;;;;;;;;5011773;28;20273;-73
2021/09/23 14:01:46;;;;;;;1.57;1.30;;;;;;;;;;4995399;28;20028;-74
2021/09/23 14:04:11;;;;;;;2.08;1.60;;;;;;;;;;4995634;28;20285;-73
2021/09/23 14:06:36;;;;;;;1.20;1.10;;;;;;;;;;5011802;28;20125;-72
2021/09/23 14:09:01;;;;;;;2.13;1.30;;;;;;;;;;5003554;28;20030;-72
2021/09/23 14:11:26;;;;;;;1.57;0.77;;;;;;;;;;4992402;28;20359;-73
2021/09/23 14:13:52;;;;;;;2.20;1.57;;;;;;;;;;5013165;28;20677;-74
2021/09/23 14:16:17;;;;;;;1.58;0.65;;;;;;;;;;5015448;28;20806;-73
2021/09/23 14:18:42;;;;;;;0.95;0.75;;;;;;;;;;4992311;28;20018;-73
2021/09/23 14:21:07;;;;;;;1.43;1.07;;;;;;;;;;4986076;28;20033;-73
2021/09/23 14:23:33;;;;;;;2.93;1.37;;;;;;;;;;5008801;28;20739;-72
2021/09/23 14:25:58;;;;;;;2.35;1.30;;;;;;;;;;5013944;28;20663;-72
2021/09/23 14:28:23;;;;;;;1.03;0.77;;;;;;;;;;5013530;28;20030;-72
2021/09/23 14:30:48;;;;;;;3.60;1.07;;;;;;;;;;5011461;28;20278;-73
2021/09/23 14:33:13;;;;;;;2.30;1.50;;;;;;;;;;4978342;28;20673;-73
2021/09/23 14:35:39;;;;;;;1.33;1.10;;;;;;;;;;5007871;28;20289;-73